Portada
METAR-TAF:

METAR-TAF

Aeroports :

Plataforma petroliera

P11-b, Països Baixos

latitud: 52-21-36N, longitud: 3-20-30E, altitud: 24 m

Observació

L'informe es va fer fa 1 hora i 7 minuts, a les 09:25 UTC
Vent 15 kt del Nord, variant entre Nord-Oest i Nord-Est
Temperatura 7°C
Humitat 70%
Pressió 1032 hPa
Visibilitat 10 km o més
Escasses núvols a una alçada de 1400 ft
Núvols disperses a una alçada de 1900 ft
Cel ennuvolat a una alçada de 3600 ft

METAR: EHPG 300925Z AUTO 35015KT 310V040 9999 FEW014 SCT019 BKN036 07/02 Q1032

Hora: 12:32 (10:32 UTC)


TAF: manca

Observacions i pronòstics meteorològics de més de 4000 aeroports (METAR i TAF).

Les estacions disponibles són els punts grocs i vermells al mapa.

Posi el ratolí al punt desitjat per veure el nom de l'estació.

Feu clic per veure les observacions i els pronòstics meteorològics.

Per canviar el mapa: feu clic els botons verds amb una creu de color negre per apropar; al botó verd amb un guió per allunyar la imatge; o en les fletxes verdes per a mapes adjacents.


METAR-TAF: